sensor_id;sensor_type;location;lat;lon;timestamp;temperature;humidity
5130;DHT22;2583;50.946;6.954;2022-07-01T00:01:45;16.00;99.90
5130;DHT22;2583;50.946;6.954;2022-07-01T00:04:13;16.00;99.90
5130;DHT22;2583;50.946;6.954;2022-07-01T00:06:40;15.90;99.90
5130;DHT22;2583;50.946;6.954;2022-07-01T00:09:07;16.00;99.90
5130;DHT22;2583;50.946;6.954;2022-07-01T00:11:35;16.00;99.90
5130;DHT22;2583;50.946;6.954;2022-07-01T00:14:02;16.00;99.90
5130;DHT22;2583;50.946;6.954;2022-07-01T00:16:29;16.00;99.90
5130;DHT22;2583;50.946;6.954;2022-07-01T00:18:56;16.00;99.90
5130;DHT22;2583;50.946;6.954;2022-07-01T00:21:23;15.90;99.90
5130;DHT22;2583;50.946;6.954;2022-07-01T00:23:50;15.90;99.90
5130;DHT22;2583;50.946;6.954;2022-07-01T00:26:17;15.90;99.90
5130;DHT22;2583;50.946;6.954;2022-07-01T00:28:44;15.90;99.90
5130;DHT22;2583;50.946;6.954;2022-07-01T00:31:10;15.90;99.90
5130;DHT22;2583;50.946;6.954;2022-07-01T00:33:37;15.90;99.90
5130;DHT22;2583;50.946;6.954;2022-07-01T00:36:04;15.80;99.90
5130;DHT22;2583;50.946;6.954;2022-07-01T00:38:31;15.80;99.90
5130;DHT22;2583;50.946;6.954;2022-07-01T00:40:58;15.80;99.90
5130;DHT22;2583;50.946;6.954;2022-07-01T00:43:25;15.80;99.90
5130;DHT22;2583;50.946;6.954;2022-07-01T00:46:12;15.90;99.90
5130;DHT22;2583;50.946;6.954;2022-07-01T00:48:42;15.90;99.90
5130;DHT22;2583;50.946;6.954;2022-07-01T00:51:10;15.90;99.90
5130;DHT22;2583;50.946;6.954;2022-07-01T00:53:37;15.90;99.90
5130;DHT22;2583;50.946;6.954;2022-07-01T00:56:05;15.90;99.90
5130;DHT22;2583;50.946;6.954;2022-07-01T00:58:32;15.90;99.90
5130;DHT22;2583;50.946;6.954;2022-07-01T01:00:59;15.90;99.90
5130;DHT22;2583;50.946;6.954;2022-07-01T01:03:26;16.00;99.90
5130;DHT22;2583;50.946;6.954;2022-07-01T01:05:54;16.00;99.90
5130;DHT22;2583;50.946;6.954;2022-07-01T01:08:23;16.00;99.90
5130;DHT22;2583;50.946;6.954;2022-07-01T01:10:52;16.00;99.90
5130;DHT22;2583;50.946;6.954;2022-07-01T01:13:20;16.00;99.90
5130;DHT22;2583;50.946;6.954;2022-07-01T01:15:47;15.90;99.90
5130;DHT22;2583;50.946;6.954;2022-07-01T01:18:14;15.90;99.90
5130;DHT22;2583;50.946;6.954;2022-07-01T01:20:41;15.90;99.90
5130;DHT22;2583;50.946;6.954;2022-07-01T01:23:08;15.90;99.90
5130;DHT22;2583;50.946;6.954;2022-07-01T01:25:35;15.90;99.90
5130;DHT22;2583;50.946;6.954;2022-07-01T01:28:02;15.90;99.90
5130;DHT22;2583;50.946;6.954;2022-07-01T01:30:29;15.80;99.90
5130;DHT22;2583;50.946;6.954;2022-07-01T01:32:56;15.80;99.90
5130;DHT22;2583;50.946;6.954;2022-07-01T01:35:23;15.80;99.90
5130;DHT22;2583;50.946;6.954;2022-07-01T01:37:50;15.80;99.90
5130;DHT22;2583;50.946;6.954;2022-07-01T01:40:18;15.90;99.90
5130;DHT22;2583;50.946;6.954;2022-07-01T01:42:45;15.90;99.90
5130;DHT22;2583;50.946;6.954;2022-07-01T01:45:13;15.90;99.90
5130;DHT22;2583;50.946;6.954;2022-07-01T01:47:41;15.90;99.90
5130;DHT22;2583;50.946;6.954;2022-07-01T01:50:09;15.90;99.90
5130;DHT22;2583;50.946;6.954;2022-07-01T01:52:36;15.90;99.90
5130;DHT22;2583;50.946;6.954;2022-07-01T01:55:05;15.90;99.90
5130;DHT22;2583;50.946;6.954;2022-07-01T01:57:32;15.90;99.90
5130;DHT22;2583;50.946;6.954;2022-07-01T01:59:59;15.90;99.90
5130;DHT22;2583;50.946;6.954;2022-07-01T02:02:26;16.00;99.90
5130;DHT22;2583;50.946;6.954;2022-07-01T02:04:53;15.90;99.90
5130;DHT22;2583;50.946;6.954;2022-07-01T02:07:20;15.80;99.90
5130;DHT22;2583;50.946;6.954;2022-07-01T02:09:47;15.80;99.90
5130;DHT22;2583;50.946;6.954;2022-07-01T02:12:14;15.80;99.90
5130;DHT22;2583;50.946;6.954;2022-07-01T02:14:41;15.80;99.90
5130;DHT22;2583;50.946;6.954;2022-07-01T02:17:08;15.80;99.90
5130;DHT22;2583;50.946;6.954;2022-07-01T02:19:35;15.80;99.90
5130;DHT22;2583;50.946;6.954;2022-07-01T02:22:02;15.80;99.90
5130;DHT22;2583;50.946;6.954;2022-07-01T02:24:29;15.70;99.90
5130;DHT22;2583;50.946;6.954;2022-07-01T02:26:55;15.70;99.90
5130;DHT22;2583;50.946;6.954;2022-07-01T02:29:22;15.70;99.90
5130;DHT22;2583;50.946;6.954;2022-07-01T02:31:49;15.80;99.90
5130;DHT22;2583;50.946;6.954;2022-07-01T02:34:16;15.80;99.90
5130;DHT22;2583;50.946;6.954;2022-07-01T02:36:43;15.80;99.90
5130;DHT22;2583;50.946;6.954;2022-07-01T02:39:10;15.70;99.90
5130;DHT22;2583;50.946;6.954;2022-07-01T02:41:36;15.70;99.90
5130;DHT22;2583;50.946;6.954;2022-07-01T02:44:23;15.70;99.90
5130;DHT22;2583;50.946;6.954;2022-07-01T02:46:50;15.70;99.90
5130;DHT22;2583;50.946;6.954;2022-07-01T02:49:17;15.80;99.90
5130;DHT22;2583;50.946;6.954;2022-07-01T02:51:44;15.70;99.90
5130;DHT22;2583;50.946;6.954;2022-07-01T02:54:10;15.80;99.90
5130;DHT22;2583;50.946;6.954;2022-07-01T02:56:37;15.70;99.90
5130;DHT22;2583;50.946;6.954;2022-07-01T02:59:04;15.70;99.90
5130;DHT22;2583;50.946;6.954;2022-07-01T03:01:31;15.70;99.90
5130;DHT22;2583;50.946;6.954;2022-07-01T03:03:58;15.70;99.90
5130;DHT22;2583;50.946;6.954;2022-07-01T03:06:24;15.80;99.90
5130;DHT22;2583;50.946;6.954;2022-07-01T03:08:51;15.80;99.90
5130;DHT22;2583;50.946;6.954;2022-07-01T03:11:18;15.90;99.90
5130;DHT22;2583;50.946;6.954;2022-07-01T03:13:45;15.90;99.90
5130;DHT22;2583;50.946;6.954;2022-07-01T03:16:12;16.00;99.90
5130;DHT22;2583;50.946;6.954;2022-07-01T03:18:39;15.90;99.90
5130;DHT22;2583;50.946;6.954;2022-07-01T03:21:06;15.90;99.90
5130;DHT22;2583;50.946;6.954;2022-07-01T03:23:33;15.90;99.90
5130;DHT22;2583;50.946;6.954;2022-07-01T03:25:59;15.90;99.90
5130;DHT22;2583;50.946;6.954;2022-07-01T03:28:26;16.00;99.90
5130;DHT22;2583;50.946;6.954;2022-07-01T03:30:53;16.00;99.90
5130;DHT22;2583;50.946;6.954;2022-07-01T03:33:20;16.00;99.90
5130;DHT22;2583;50.946;6.954;2022-07-01T03:35:47;16.00;99.90
5130;DHT22;2583;50.946;6.954;2022-07-01T03:38:13;16.00;99.90
5130;DHT22;2583;50.946;6.954;2022-07-01T03:40:40;16.00;99.90
5130;DHT22;2583;50.946;6.954;2022-07-01T03:43:07;16.00;99.90
5130;DHT22;2583;50.946;6.954;2022-07-01T03:45:34;16.00;99.90
5130;DHT22;2583;50.946;6.954;2022-07-01T03:48:01;16.00;99.90
5130;DHT22;2583;50.946;6.954;2022-07-01T03:50:31;16.00;99.90
5130;DHT22;2583;50.946;6.954;2022-07-01T03:52:57;16.10;99.90
5130;DHT22;2583;50.946;6.954;2022-07-01T03:55:43;16.00;99.90
5130;DHT22;2583;50.946;6.954;2022-07-01T03:58:10;16.10;99.90
5130;DHT22;2583;50.946;6.954;2022-07-01T04:00:37;16.10;99.90
5130;DHT22;2583;50.946;6.954;2022-07-01T04:03:05;16.00;99.90
5130;DHT22;2583;50.946;6.954;2022-07-01T04:05:37;16.10;99.90
5130;DHT22;2583;50.946;6.954;2022-07-01T04:08:06;16.10;99.90
5130;DHT22;2583;50.946;6.954;2022-07-01T04:10:34;16.10;99.90
5130;DHT22;2583;50.946;6.954;2022-07-01T04:13:02;16.10;99.90
5130;DHT22;2583;50.946;6.954;2022-07-01T04:15:50;16.10;99.90
5130;DHT22;2583;50.946;6.954;2022-07-01T04:18:17;16.10;99.90
5130;DHT22;2583;50.946;6.954;2022-07-01T04:20:44;16.10;99.90
5130;DHT22;2583;50.946;6.954;2022-07-01T04:23:31;16.10;99.90
5130;DHT22;2583;50.946;6.954;2022-07-01T04:26:00;16.10;99.90
5130;DHT22;2583;50.946;6.954;2022-07-01T04:28:46;16.10;99.90
5130;DHT22;2583;50.946;6.954;2022-07-01T04:31:13;16.20;99.90
5130;DHT22;2583;50.946;6.954;2022-07-01T04:33:40;16.20;99.90
5130;DHT22;2583;50.946;6.954;2022-07-01T04:36:06;16.20;99.90
5130;DHT22;2583;50.946;6.954;2022-07-01T04:38:33;16.30;99.90
5130;DHT22;2583;50.946;6.954;2022-07-01T04:41:00;16.20;99.90
5130;DHT22;2583;50.946;6.954;2022-07-01T04:43:45;16.20;99.90
5130;DHT22;2583;50.946;6.954;2022-07-01T04:46:12;16.20;99.90
5130;DHT22;2583;50.946;6.954;2022-07-01T04:48:39;16.20;99.90
5130;DHT22;2583;50.946;6.954;2022-07-01T04:51:06;16.30;99.90
5130;DHT22;2583;50.946;6.954;2022-07-01T04:53:33;16.30;99.90
5130;DHT22;2583;50.946;6.954;2022-07-01T04:56:00;16.30;99.90
5130;DHT22;2583;50.946;6.954;2022-07-01T04:58:27;16.30;99.90
5130;DHT22;2583;50.946;6.954;2022-07-01T05:00:54;16.30;99.90
5130;DHT22;2583;50.946;6.954;2022-07-01T05:03:21;16.20;99.90
5130;DHT22;2583;50.946;6.954;2022-07-01T05:05:48;16.20;99.90
5130;DHT22;2583;50.946;6.954;2022-07-01T05:08:15;16.20;99.90
5130;DHT22;2583;50.946;6.954;2022-07-01T05:10:42;16.20;99.90
5130;DHT22;2583;50.946;6.954;2022-07-01T05:13:09;16.20;99.90
5130;DHT22;2583;50.946;6.954;2022-07-01T05:15:36;16.10;99.90
5130;DHT22;2583;50.946;6.954;2022-07-01T05:18:02;16.20;99.90
5130;DHT22;2583;50.946;6.954;2022-07-01T05:20:48;16.20;99.90
5130;DHT22;2583;50.946;6.954;2022-07-01T05:23:37;16.30;99.90
5130;DHT22;2583;50.946;6.954;2022-07-01T05:26:04;16.30;99.90
5130;DHT22;2583;50.946;6.954;2022-07-01T05:28:31;16.40;99.90
5130;DHT22;2583;50.946;6.954;2022-07-01T05:30:57;16.40;99.90
5130;DHT22;2583;50.946;6.954;2022-07-01T05:33:24;16.40;99.90
5130;DHT22;2583;50.946;6.954;2022-07-01T05:35:53;16.50;99.90
5130;DHT22;2583;50.946;6.954;2022-07-01T05:38:20;16.50;99.90
5130;DHT22;2583;50.946;6.954;2022-07-01T05:40:47;16.50;99.90
5130;DHT22;2583;50.946;6.954;2022-07-01T05:43:14;16.40;99.90
5130;DHT22;2583;50.946;6.954;2022-07-01T05:45:41;16.40;99.90
5130;DHT22;2583;50.946;6.954;2022-07-01T05:48:08;16.50;99.90
5130;DHT22;2583;50.946;6.954;2022-07-01T05:50:34;16.50;99.90
5130;DHT22;2583;50.946;6.954;2022-07-01T05:53:01;16.60;99.90
5130;DHT22;2583;50.946;6.954;2022-07-01T05:55:28;16.60;99.90
5130;DHT22;2583;50.946;6.954;2022-07-01T05:57:55;16.60;99.90
5130;DHT22;2583;50.946;6.954;2022-07-01T06:00:22;16.60;99.90
5130;DHT22;2583;50.946;6.954;2022-07-01T06:02:49;16.70;99.90
5130;DHT22;2583;50.946;6.954;2022-07-01T06:05:16;16.70;99.90
5130;DHT22;2583;50.946;6.954;2022-07-01T06:07:42;16.80;99.90
5130;DHT22;2583;50.946;6.954;2022-07-01T06:10:09;16.90;99.90
5130;DHT22;2583;50.946;6.954;2022-07-01T06:12:40;16.90;99.90
5130;DHT22;2583;50.946;6.954;2022-07-01T06:15:09;16.90;99.90
5130;DHT22;2583;50.946;6.954;2022-07-01T06:17:38;16.80;99.90
5130;DHT22;2583;50.946;6.954;2022-07-01T06:20:06;16.90;99.90
5130;DHT22;2583;50.946;6.954;2022-07-01T06:22:33;16.90;99.90
5130;DHT22;2583;50.946;6.954;2022-07-01T06:25:01;17.00;99.90
5130;DHT22;2583;50.946;6.954;2022-07-01T06:27:29;17.10;99.90
5130;DHT22;2583;50.946;6.954;2022-07-01T06:29:56;17.00;99.90
5130;DHT22;2583;50.946;6.954;2022-07-01T06:32:23;17.10;99.90
5130;DHT22;2583;50.946;6.954;2022-07-01T06:34:49;17.10;99.90
5130;DHT22;2583;50.946;6.954;2022-07-01T06:37:17;17.10;99.90
5130;DHT22;2583;50.946;6.954;2022-07-01T06:39:46;17.30;99.90
5130;DHT22;2583;50.946;6.954;2022-07-01T06:42:13;17.50;99.90
5130;DHT22;2583;50.946;6.954;2022-07-01T06:44:40;17.60;99.90
5130;DHT22;2583;50.946;6.954;2022-07-01T06:47:07;17.50;99.90
5130;DHT22;2583;50.946;6.954;2022-07-01T06:49:34;17.70;99.90
5130;DHT22;2583;50.946;6.954;2022-07-01T06:52:01;17.80;99.90
5130;DHT22;2583;50.946;6.954;2022-07-01T06:54:28;17.90;99.90
5130;DHT22;2583;50.946;6.954;2022-07-01T06:56:55;17.90;99.90
5130;DHT22;2583;50.946;6.954;2022-07-01T06:59:22;18.00;99.90
5130;DHT22;2583;50.946;6.954;2022-07-01T07:01:49;17.80;99.90
5130;DHT22;2583;50.946;6.954;2022-07-01T07:04:16;17.90;99.90
5130;DHT22;2583;50.946;6.954;2022-07-01T07:06:53;17.80;99.90
5130;DHT22;2583;50.946;6.954;2022-07-01T07:09:19;17.80;99.90
5130;DHT22;2583;50.946;6.954;2022-07-01T07:11:46;17.80;99.90
5130;DHT22;2583;50.946;6.954;2022-07-01T07:14:13;17.80;99.90
5130;DHT22;2583;50.946;6.954;2022-07-01T07:16:40;17.90;99.90
5130;DHT22;2583;50.946;6.954;2022-07-01T07:19:06;17.80;99.90
5130;DHT22;2583;50.946;6.954;2022-07-01T07:21:34;17.70;99.90
5130;DHT22;2583;50.946;6.954;2022-07-01T07:24:01;17.70;99.90
5130;DHT22;2583;50.946;6.954;2022-07-01T07:26:27;17.80;99.90
5130;DHT22;2583;50.946;6.954;2022-07-01T07:28:55;17.80;99.90
5130;DHT22;2583;50.946;6.954;2022-07-01T07:31:21;18.10;99.90
5130;DHT22;2583;50.946;6.954;2022-07-01T07:33:48;18.20;99.90
5130;DHT22;2583;50.946;6.954;2022-07-01T07:36:15;18.10;99.90
5130;DHT22;2583;50.946;6.954;2022-07-01T07:38:42;18.20;99.90
5130;DHT22;2583;50.946;6.954;2022-07-01T07:41:09;18.20;99.90
5130;DHT22;2583;50.946;6.954;2022-07-01T07:43:36;18.30;99.90
5130;DHT22;2583;50.946;6.954;2022-07-01T07:46:03;18.20;99.90
5130;DHT22;2583;50.946;6.954;2022-07-01T07:48:31;18.10;99.90
5130;DHT22;2583;50.946;6.954;2022-07-01T07:50:57;18.20;99.90
5130;DHT22;2583;50.946;6.954;2022-07-01T07:53:24;18.40;99.90
5130;DHT22;2583;50.946;6.954;2022-07-01T07:55:51;18.40;99.90
5130;DHT22;2583;50.946;6.954;2022-07-01T07:58:18;18.60;99.90
5130;DHT22;2583;50.946;6.954;2022-07-01T08:00:45;18.80;99.90
5130;DHT22;2583;50.946;6.954;2022-07-01T08:03:12;18.90;99.90
5130;DHT22;2583;50.946;6.954;2022-07-01T08:05:39;18.90;99.90
5130;DHT22;2583;50.946;6.954;2022-07-01T08:08:06;19.00;99.90
5130;DHT22;2583;50.946;6.954;2022-07-01T08:10:32;18.80;99.90
5130;DHT22;2583;50.946;6.954;2022-07-01T08:12:59;18.90;99.90
5130;DHT22;2583;50.946;6.954;2022-07-01T08:15:30;19.00;99.90
5130;DHT22;2583;50.946;6.954;2022-07-01T08:17:57;19.00;99.90
5130;DHT22;2583;50.946;6.954;2022-07-01T08:20:24;19.10;99.90
5130;DHT22;2583;50.946;6.954;2022-07-01T08:22:51;19.10;99.90
5130;DHT22;2583;50.946;6.954;2022-07-01T08:25:18;19.20;99.90
5130;DHT22;2583;50.946;6.954;2022-07-01T08:27:44;19.20;99.90
5130;DHT22;2583;50.946;6.954;2022-07-01T08:30:11;19.20;99.90
5130;DHT22;2583;50.946;6.954;2022-07-01T08:32:38;19.10;99.90
5130;DHT22;2583;50.946;6.954;2022-07-01T08:35:05;19.00;99.90
5130;DHT22;2583;50.946;6.954;2022-07-01T08:37:32;19.10;99.90
5130;DHT22;2583;50.946;6.954;2022-07-01T08:39:59;19.10;99.90
5130;DHT22;2583;50.946;6.954;2022-07-01T08:42:26;19.10;99.90
5130;DHT22;2583;50.946;6.954;2022-07-01T08:44:52;19.10;99.90
5130;DHT22;2583;50.946;6.954;2022-07-01T08:47:19;19.20;99.90
5130;DHT22;2583;50.946;6.954;2022-07-01T08:49:46;19.40;99.90
5130;DHT22;2583;50.946;6.954;2022-07-01T08:52:13;19.40;99.90
5130;DHT22;2583;50.946;6.954;2022-07-01T08:54:40;19.40;99.40
5130;DHT22;2583;50.946;6.954;2022-07-01T08:57:07;19.40;96.20
5130;DHT22;2583;50.946;6.954;2022-07-01T08:59:34;19.40;96.00
5130;DHT22;2583;50.946;6.954;2022-07-01T09:02:03;19.40;96.90
5130;DHT22;2583;50.946;6.954;2022-07-01T09:04:31;19.60;97.40
5130;DHT22;2583;50.946;6.954;2022-07-01T09:07:07;19.70;97.40
5130;DHT22;2583;50.946;6.954;2022-07-01T09:09:38;19.90;97.70
5130;DHT22;2583;50.946;6.954;2022-07-01T09:12:06;20.00;96.50
5130;DHT22;2583;50.946;6.954;2022-07-01T09:14:34;19.90;96.30
5130;DHT22;2583;50.946;6.954;2022-07-01T09:17:06;20.10;92.30
5130;DHT22;2583;50.946;6.954;2022-07-01T09:19:36;20.20;93.20
5130;DHT22;2583;50.946;6.954;2022-07-01T09:22:10;20.30;84.20
5130;DHT22;2583;50.946;6.954;2022-07-01T09:24:42;20.30;82.20
5130;DHT22;2583;50.946;6.954;2022-07-01T09:27:14;20.40;79.90
5130;DHT22;2583;50.946;6.954;2022-07-01T09:29:49;20.30;81.80
5130;DHT22;2583;50.946;6.954;2022-07-01T09:32:19;20.20;81.90
5130;DHT22;2583;50.946;6.954;2022-07-01T09:34:51;20.40;79.10
5130;DHT22;2583;50.946;6.954;2022-07-01T09:37:24;20.70;77.00
5130;DHT22;2583;50.946;6.954;2022-07-01T09:39:56;20.80;76.20
5130;DHT22;2583;50.946;6.954;2022-07-01T09:42:25;21.00;69.80
5130;DHT22;2583;50.946;6.954;2022-07-01T09:47:30;20.90;71.40
5130;DHT22;2583;50.946;6.954;2022-07-01T09:49:58;20.90;68.90
5130;DHT22;2583;50.946;6.954;2022-07-01T09:52:25;20.80;71.70
5130;DHT22;2583;50.946;6.954;2022-07-01T09:54:52;21.00;71.10
5130;DHT22;2583;50.946;6.954;2022-07-01T09:57:20;20.70;65.30
5130;DHT22;2583;50.946;6.954;2022-07-01T09:59:48;20.90;66.70
5130;DHT22;2583;50.946;6.954;2022-07-01T10:02:18;21.40;63.40
5130;DHT22;2583;50.946;6.954;2022-07-01T10:04:56;21.40;65.40
5130;DHT22;2583;50.946;6.954;2022-07-01T10:10:43;21.10;70.40
5130;DHT22;2583;50.946;6.954;2022-07-01T10:13:13;21.30;57.90
5130;DHT22;2583;50.946;6.954;2022-07-01T10:15:41;21.60;56.80
5130;DHT22;2583;50.946;6.954;2022-07-01T10:18:25;21.90;54.80
5130;DHT22;2583;50.946;6.954;2022-07-01T10:20:54;21.60;56.20
5130;DHT22;2583;50.946;6.954;2022-07-01T10:23:23;21.30;52.00
5130;DHT22;2583;50.946;6.954;2022-07-01T10:25:51;21.00;50.40
5130;DHT22;2583;50.946;6.954;2022-07-01T10:28:25;21.00;55.50
5130;DHT22;2583;50.946;6.954;2022-07-01T10:36:12;21.10;50.70
5130;DHT22;2583;50.946;6.954;2022-07-01T10:44:07;21.60;44.30
5130;DHT22;2583;50.946;6.954;2022-07-01T10:46:48;21.90;43.00
5130;DHT22;2583;50.946;6.954;2022-07-01T10:52:14;22.30;40.90
5130;DHT22;2583;50.946;6.954;2022-07-01T10:54:48;22.50;41.00
5130;DHT22;2583;50.946;6.954;2022-07-01T11:05:17;22.10;38.80
5130;DHT22;2583;50.946;6.954;2022-07-01T11:07:44;22.30;40.80
5130;DHT22;2583;50.946;6.954;2022-07-01T11:10:14;22.50;38.70
5130;DHT22;2583;50.946;6.954;2022-07-01T11:12:42;22.60;37.10
5130;DHT22;2583;50.946;6.954;2022-07-01T11:15:15;22.80;37.60
5130;DHT22;2583;50.946;6.954;2022-07-01T11:17:48;23.00;33.80
5130;DHT22;2583;50.946;6.954;2022-07-01T11:20:15;23.00;35.90
5130;DHT22;2583;50.946;6.954;2022-07-01T11:22:49;22.80;34.40
5130;DHT22;2583;50.946;6.954;2022-07-01T11:25:18;22.70;33.30
5130;DHT22;2583;50.946;6.954;2022-07-01T11:27:46;22.50;35.20
5130;DHT22;2583;50.946;6.954;2022-07-01T11:30:14;22.30;35.90
5130;DHT22;2583;50.946;6.954;2022-07-01T11:32:56;22.40;36.90
5130;DHT22;2583;50.946;6.954;2022-07-01T11:35:25;22.70;35.10
5130;DHT22;2583;50.946;6.954;2022-07-01T11:38:23;22.80;31.80
5130;DHT22;2583;50.946;6.954;2022-07-01T11:41:24;22.80;30.50
5130;DHT22;2583;50.946;6.954;2022-07-01T11:43:54;22.70;30.10
5130;DHT22;2583;50.946;6.954;2022-07-01T11:46:21;22.60;29.50
5130;DHT22;2583;50.946;6.954;2022-07-01T11:48:51;22.80;29.70
5130;DHT22;2583;50.946;6.954;2022-07-01T11:51:21;22.80;29.80
5130;DHT22;2583;50.946;6.954;2022-07-01T11:53:50;22.70;30.20
5130;DHT22;2583;50.946;6.954;2022-07-01T11:56:36;22.90;30.90
5130;DHT22;2583;50.946;6.954;2022-07-01T11:59:05;22.90;30.00
5130;DHT22;2583;50.946;6.954;2022-07-01T12:01:34;22.80;30.00
5130;DHT22;2583;50.946;6.954;2022-07-01T12:04:05;22.70;29.90
5130;DHT22;2583;50.946;6.954;2022-07-01T12:06:34;22.60;29.60
5130;DHT22;2583;50.946;6.954;2022-07-01T12:09:01;22.70;29.40
5130;DHT22;2583;50.946;6.954;2022-07-01T12:11:29;22.80;29.80
5130;DHT22;2583;50.946;6.954;2022-07-01T12:14:04;23.20;29.90
5130;DHT22;2583;50.946;6.954;2022-07-01T12:16:41;23.80;28.00
5130;DHT22;2583;50.946;6.954;2022-07-01T12:19:08;23.80;25.70
5130;DHT22;2583;50.946;6.954;2022-07-01T12:22:07;23.80;25.50
5130;DHT22;2583;50.946;6.954;2022-07-01T12:24:34;23.80;24.50
5130;DHT22;2583;50.946;6.954;2022-07-01T12:27:06;23.80;24.00
5130;DHT22;2583;50.946;6.954;2022-07-01T12:32:15;23.70;24.10
5130;DHT22;2583;50.946;6.954;2022-07-01T12:34:56;24.00;24.10
5130;DHT22;2583;50.946;6.954;2022-07-01T12:37:31;24.50;22.60
5130;DHT22;2583;50.946;6.954;2022-07-01T12:39:59;24.60;21.80
5130;DHT22;2583;50.946;6.954;2022-07-01T12:44:56;24.60;20.50
5130;DHT22;2583;50.946;6.954;2022-07-01T12:47:30;24.40;20.50
5130;DHT22;2583;50.946;6.954;2022-07-01T12:50:24;24.20;21.20
5130;DHT22;2583;50.946;6.954;2022-07-01T12:53:12;24.10;21.20
5130;DHT22;2583;50.946;6.954;2022-07-01T12:55:45;24.30;20.50
5130;DHT22;2583;50.946;6.954;2022-07-01T12:58:18;24.00;21.20
5130;DHT22;2583;50.946;6.954;2022-07-01T13:00:47;23.90;22.30
5130;DHT22;2583;50.946;6.954;2022-07-01T13:03:18;23.80;22.70
5130;DHT22;2583;50.946;6.954;2022-07-01T13:05:45;23.70;21.90
5130;DHT22;2583;50.946;6.954;2022-07-01T13:08:12;23.60;22.30
5130;DHT22;2583;50.946;6.954;2022-07-01T13:10:39;23.40;23.00
5130;DHT22;2583;50.946;6.954;2022-07-01T13:13:07;23.40;23.00
5130;DHT22;2583;50.946;6.954;2022-07-01T13:15:34;23.90;23.40
5130;DHT22;2583;50.946;6.954;2022-07-01T13:18:02;24.60;20.60
5130;DHT22;2583;50.946;6.954;2022-07-01T13:20:30;24.60;19.60
5130;DHT22;2583;50.946;6.954;2022-07-01T13:22:57;24.40;18.80
5130;DHT22;2583;50.946;6.954;2022-07-01T13:25:24;24.10;19.00
5130;DHT22;2583;50.946;6.954;2022-07-01T13:27:51;24.20;19.40
5130;DHT22;2583;50.946;6.954;2022-07-01T13:30:18;24.30;18.50
5130;DHT22;2583;50.946;6.954;2022-07-01T13:32:45;25.00;17.70
5130;DHT22;2583;50.946;6.954;2022-07-01T13:35:13;25.60;16.20
5130;DHT22;2583;50.946;6.954;2022-07-01T13:37:41;26.30;16.40
5130;DHT22;2583;50.946;6.954;2022-07-01T13:40:09;26.80;15.80
5130;DHT22;2583;50.946;6.954;2022-07-01T13:42:36;27.30;14.60
5130;DHT22;2583;50.946;6.954;2022-07-01T13:45:04;28.00;14.10
5130;DHT22;2583;50.946;6.954;2022-07-01T13:47:31;27.80;13.50
5130;DHT22;2583;50.946;6.954;2022-07-01T13:49:58;27.90;13.40
5130;DHT22;2583;50.946;6.954;2022-07-01T13:52:25;28.20;11.90
5130;DHT22;2583;50.946;6.954;2022-07-01T13:54:56;28.70;11.60
5130;DHT22;2583;50.946;6.954;2022-07-01T13:57:23;29.20;11.90
5130;DHT22;2583;50.946;6.954;2022-07-01T13:59:50;29.50;11.10
5130;DHT22;2583;50.946;6.954;2022-07-01T14:02:19;29.70;10.40
5130;DHT22;2583;50.946;6.954;2022-07-01T14:04:47;30.10;11.10
5130;DHT22;2583;50.946;6.954;2022-07-01T14:07:14;29.60;9.70
5130;DHT22;2583;50.946;6.954;2022-07-01T14:09:41;28.50;11.40
5130;DHT22;2583;50.946;6.954;2022-07-01T14:12:11;27.60;12.80
5130;DHT22;2583;50.946;6.954;2022-07-01T14:14:47;27.00;13.40
5130;DHT22;2583;50.946;6.954;2022-07-01T14:17:14;26.40;14.30
5130;DHT22;2583;50.946;6.954;2022-07-01T14:19:41;27.20;14.40
5130;DHT22;2583;50.946;6.954;2022-07-01T14:22:07;27.70;13.20
5130;DHT22;2583;50.946;6.954;2022-07-01T14:24:34;27.80;12.50
5130;DHT22;2583;50.946;6.954;2022-07-01T14:27:02;27.40;13.00
5130;DHT22;2583;50.946;6.954;2022-07-01T14:29:28;26.60;13.90
5130;DHT22;2583;50.946;6.954;2022-07-01T14:31:55;26.00;14.30
5130;DHT22;2583;50.946;6.954;2022-07-01T14:34:22;25.30;15.20
5130;DHT22;2583;50.946;6.954;2022-07-01T14:36:49;25.00;15.90
5130;DHT22;2583;50.946;6.954;2022-07-01T14:39:16;24.90;15.90
5130;DHT22;2583;50.946;6.954;2022-07-01T14:41:43;24.60;16.10
5130;DHT22;2583;50.946;6.954;2022-07-01T14:44:22;24.30;16.70
5130;DHT22;2583;50.946;6.954;2022-07-01T14:46:48;24.10;17.10
5130;DHT22;2583;50.946;6.954;2022-07-01T14:49:17;24.30;17.20
5130;DHT22;2583;50.946;6.954;2022-07-01T14:51:44;24.40;16.90
5130;DHT22;2583;50.946;6.954;2022-07-01T14:54:11;24.40;17.20
5130;DHT22;2583;50.946;6.954;2022-07-01T14:56:38;24.30;17.10
5130;DHT22;2583;50.946;6.954;2022-07-01T14:59:05;24.20;17.10
5130;DHT22;2583;50.946;6.954;2022-07-01T15:01:37;24.10;17.30
5130;DHT22;2583;50.946;6.954;2022-07-01T15:04:04;24.10;17.30
5130;DHT22;2583;50.946;6.954;2022-07-01T15:06:31;24.00;17.30
5130;DHT22;2583;50.946;6.954;2022-07-01T15:08:58;24.00;17.10
5130;DHT22;2583;50.946;6.954;2022-07-01T15:11:24;24.00;17.30
5130;DHT22;2583;50.946;6.954;2022-07-01T15:13:51;23.90;17.40
5130;DHT22;2583;50.946;6.954;2022-07-01T15:16:18;23.90;17.40
5130;DHT22;2583;50.946;6.954;2022-07-01T15:18:45;24.00;17.40
5130;DHT22;2583;50.946;6.954;2022-07-01T15:21:12;24.00;17.00
5130;DHT22;2583;50.946;6.954;2022-07-01T15:23:39;23.90;17.20
5130;DHT22;2583;50.946;6.954;2022-07-01T15:26:05;23.90;17.40
5130;DHT22;2583;50.946;6.954;2022-07-01T15:28:32;23.90;17.70
5130;DHT22;2583;50.946;6.954;2022-07-01T15:30:59;24.00;17.90
5130;DHT22;2583;50.946;6.954;2022-07-01T15:33:26;24.00;18.10
5130;DHT22;2583;50.946;6.954;2022-07-01T15:35:55;23.90;17.50
5130;DHT22;2583;50.946;6.954;2022-07-01T15:38:21;24.00;17.40
5130;DHT22;2583;50.946;6.954;2022-07-01T15:40:48;24.00;17.30
5130;DHT22;2583;50.946;6.954;2022-07-01T15:43:15;23.90;17.40
5130;DHT22;2583;50.946;6.954;2022-07-01T15:45:42;23.90;17.60
5130;DHT22;2583;50.946;6.954;2022-07-01T15:48:09;23.90;18.00
5130;DHT22;2583;50.946;6.954;2022-07-01T15:50:38;23.90;17.50
5130;DHT22;2583;50.946;6.954;2022-07-01T15:53:05;24.00;17.30
5130;DHT22;2583;50.946;6.954;2022-07-01T15:55:32;24.10;16.70
5130;DHT22;2583;50.946;6.954;2022-07-01T15:58:00;24.10;16.70
5130;DHT22;2583;50.946;6.954;2022-07-01T16:00:27;24.10;16.90
5130;DHT22;2583;50.946;6.954;2022-07-01T16:02:54;23.90;17.90
5130;DHT22;2583;50.946;6.954;2022-07-01T16:05:21;23.80;18.40
5130;DHT22;2583;50.946;6.954;2022-07-01T16:07:53;23.90;18.70
5130;DHT22;2583;50.946;6.954;2022-07-01T16:13:03;23.70;18.80
5130;DHT22;2583;50.946;6.954;2022-07-01T16:15:33;23.70;19.20
5130;DHT22;2583;50.946;6.954;2022-07-01T16:18:03;23.50;18.80
5130;DHT22;2583;50.946;6.954;2022-07-01T16:20:34;23.40;18.30
5130;DHT22;2583;50.946;6.954;2022-07-01T16:23:04;23.30;18.30
5130;DHT22;2583;50.946;6.954;2022-07-01T16:25:33;23.40;18.70
5130;DHT22;2583;50.946;6.954;2022-07-01T16:28:02;23.40;18.50
5130;DHT22;2583;50.946;6.954;2022-07-01T16:30:29;23.50;18.30
5130;DHT22;2583;50.946;6.954;2022-07-01T16:32:56;23.50;18.40
5130;DHT22;2583;50.946;6.954;2022-07-01T16:35:26;23.60;18.10
5130;DHT22;2583;50.946;6.954;2022-07-01T16:37:58;23.60;18.00
5130;DHT22;2583;50.946;6.954;2022-07-01T16:40:28;23.40;18.00
5130;DHT22;2583;50.946;6.954;2022-07-01T16:42:55;23.50;18.20
5130;DHT22;2583;50.946;6.954;2022-07-01T16:45:30;23.60;18.10
5130;DHT22;2583;50.946;6.954;2022-07-01T16:48:00;23.70;18.70